Flight Track Log - Related Links

Times and Time Zones

All times are in EDT time to prevent confusion due to time zone crossing. See the CES5648 flight status page for this flight to view local times or setup timezone preferences in your user account.

Time Position Orientation Groundspeed Altitude Reporting Facility
EDT Latitude Longitude Course Direction KTS MPH feet Rate Location/Type
Sat 10:47:00 AM 28.4998 118.7359 39° Northeast  Level Estimated
Sat 10:48:00 AM 28.5662 118.7977 39° Northeast  Level Estimated
Sat 10:49:00 AM 28.6324 118.8595 39° Northeast  Level Estimated
Sat 10:50:00 AM 28.6987 118.9213 39° Northeast  Level Estimated
Sat 10:51:00 AM 28.7649 118.9833 39° Northeast  Level Estimated
Sat 10:52:00 AM 28.8311 119.0453 39° Northeast  Level Estimated
Sat 10:53:00 AM 28.8973 119.1074 39° Northeast  Level Estimated
Sat 10:54:00 AM 28.9634 119.1696 39° Northeast  Level Estimated
Sat 10:55:00 AM 29.0296 119.2318 39° Northeast  Level Estimated
Sat 10:56:00 AM 29.0956 119.2942 39° Northeast  Level Estimated
Sat 10:57:00 AM 29.1617 119.3566 40° Northeast  Level Estimated
Sat 10:58:00 AM 29.2277 119.4191 40° Northeast  Level Estimated
Sat 10:59:00 AM 29.2937 119.4817 40° Northeast  Level Estimated
Sat 11:00:00 AM 29.3597 119.5443 40° Northeast  Level Estimated
Sat 11:01:00 AM 29.4256 119.6071 40° Northeast  Level Estimated
Sat 11:02:00 AM 29.4916 119.6699 40° Northeast  Level Estimated
Sat 11:03:00 AM 29.5574 119.7328 40° Northeast  Level Estimated
Sat 11:04:00 AM 29.6233 119.7958 40° Northeast  Level Estimated
Sat 11:05:00 AM 29.6891 119.8589 40° Northeast  Level Estimated
Sat 11:06:00 AM 29.7549 119.9220 40° Northeast  Level Estimated
Sat 11:07:00 AM 29.8207 119.9853 40° Northeast  Level Estimated
Sat 11:08:00 AM 29.8864 120.0486 40° Northeast  Level Estimated
Sat 11:09:00 AM 29.9521 120.1120 40° Northeast  Level Estimated
Sat 11:10:00 AM 30.0178 120.1755 40° Northeast  Level Estimated
Sat 11:11:00 AM 30.0834 120.2391 40° Northeast  Level Estimated
Sat 11:12:00 AM 30.1490 120.3027 40° Northeast  Level Estimated
Sat 11:13:00 AM 30.2146 120.3665 40° Northeast  Level Estimated
Sat 11:14:00 AM 30.2801 120.4303 40° Northeast  Level Estimated
Sat 11:15:00 AM 30.3457 120.4942 40° Northeast  Level Estimated
Sat 11:16:00 AM 30.4111 120.5582 40° Northeast  Level Estimated
Sat 11:17:00 AM 30.4766 120.6223 40° Northeast  Level Estimated
Sat 11:18:00 AM 30.5420 120.6865 40° Northeast  Level Estimated
Sat 11:19:00 AM 30.6074 120.7507 40° Northeast  Level Estimated
Sat 11:20:00 AM 30.6728 120.8151 40° Northeast  Level Estimated
Sat 11:21:00 AM 30.7381 120.8795 40° Northeast  Level Estimated
Sat 11:22:00 AM 30.8034 120.9440 40° Northeast  Level Estimated
Sat 11:23:00 AM 30.8687 121.0086 40° Northeast  Level Estimated
Sat 11:24:00 AM 30.9339 121.0733 40° Northeast  Level Estimated
Sat 11:25:00 AM 31.0004 121.1393 40° Northeast  Level Estimated
Sat 11:26:00 AM 31.0668 121.2055 40° Northeast  Level Estimated
Sat 11:27:00 AM 31.1332 121.2717 40° Northeast  Level Estimated
Sat 11:28:00 AM 31.1979 121.3363 41° Northeast  Level Estimated
Sat 11:28:43 AM 31.0792 121.3040 346° North 233 268 6,000  Level FlightAware ADS-B (ZSSS / SHA)
Sat 11:29:00 AM 31.1979 121.3363 North  Level Estimated
Sat 11:29:02 AM 31.0987 121.2981 346° North 233 268 6,100  Level FlightAware ADS-B (ZSSS / SHA)
Sat 11:29:24 AM 31.1219 121.2911 346° North 233 268 6,100  Level FlightAware ADS-B (ZSSS / SHA)
Sat 11:29:44 AM 31.1438 121.2844 346° North 232 267 6,100 -176 Level FlightAware ADS-B (ZSSS / SHA)
Sat 11:29:58 AM 31.1583 121.2801 346° North 233 268 6,000 -600 Descending FlightAware ADS-B (ZSSS / SHA)
Sat 11:30:14 AM 31.1743 121.2752 346° North 230 265 5,800 -774 Descending FlightAware ADS-B (ZSSS / SHA)
Sat 11:30:29 AM 31.1902 121.2704 346° North 225 259 5,600 -800 Descending FlightAware ADS-B (ZSSS / SHA)
Sat 11:30:44 AM 31.2045 121.2660 346° North 222 255 5,400 -800 Descending FlightAware ADS-B (ZSSS / SHA)
Sat 11:30:59 AM 31.2195 121.2614 346° North 222 255 5,200 -581 Descending FlightAware ADS-B (ZSSS / SHA)
Sat 11:31:15 AM 31.2346 121.2569 346° North 207 238 5,100 -171 Descending FlightAware ADS-B (ZSSS / SHA)
Sat 11:31:34 AM 31.2523 121.2515 346° North 194 223 5,100  Level FlightAware ADS-B (ZSSS / SHA)
Sat 11:31:54 AM 31.2693 121.2464 346° North 193 222 5,100 -171 Level FlightAware ADS-B (ZSSS / SHA)
Sat 11:32:09 AM 31.2820 121.2426 346° North 195 224 5,000 -621 Descending FlightAware ADS-B (ZSSS / SHA)
Sat 11:32:23 AM 31.2946 121.2389 346° North 194 223 4,800 -774 Descending FlightAware ADS-B (ZSSS / SHA)
Sat 11:32:40 AM 31.3091 121.2345 346° North 192 221 4,600 -774 Descending FlightAware ADS-B (ZSSS / SHA)
Sat 11:32:54 AM 31.3214 121.2313 351° North 190 219 4,400 -828 Descending FlightAware ADS-B (ZSSS / SHA)
Sat 11:33:09 AM 31.3341 121.2295 354° North 190 219 4,200 -643 Descending FlightAware ADS-B (ZSSS / SHA)
Sat 11:33:22 AM 31.3442 121.2284 355° North 189 217 4,100 -933 Descending FlightAware ADS-B (ZSSS / SHA)
Sat 11:33:54 AM 31.3737 121.2251 355° North 191 220 3,500 -1,000 Descending FlightAware ADS-B (ZSSS / SHA)
Sat 11:34:04 AM 31.3820 121.2250 North 191 220 3,400 -800 Descending FlightAware ADS-B (ZSSS / SHA)
Sat 11:34:09 AM 31.3871 121.2265 18° North 191 220 3,300 -1,200 Descending FlightAware ADS-B (ZSSS / SHA)
Sat 11:34:14 AM 31.3910 121.2290 31° Northeast 190 219 3,200 -404 Descending FlightAware ADS-B (ZSSS / SHA)
Sat 11:37:22 AM 31.3267 121.3293 177° South 179 206 2,000 -344 Descending FlightAware ADS-B (ZSSS / SHA)
Sat 11:37:43 AM 31.3114 121.3301 177° South 154 177 2,000 -324 Level FlightAware ADS-B (ZSSS / SHA)
Sat 11:37:59 AM 31.2994 121.3307 177° South 148 170 1,800 -828 Descending FlightAware ADS-B (ZSSS / SHA)
Sat 11:38:12 AM 31.2913 121.3312 177° South 141 162 1,600 -600 Descending FlightAware ADS-B (ZSSS / SHA)
Sat 11:38:29 AM 31.2805 121.3318 177° South 129 148 1,500 -563 Descending FlightAware ADS-B (ZSSS / SHA)
Sat 11:38:44 AM 31.2719 121.3323 177° South 126 145 1,300 -727 Descending FlightAware ADS-B (ZSSS / SHA)
Sat 11:39:02 AM 31.2606 121.3328 176° South 123 142 1,100 -514 Descending FlightAware ADS-B (ZSSS / SHA)
Sat 11:39:19 AM 31.2512 121.3334 177° South 126 145 1,000 -581 Descending FlightAware ADS-B (ZSSS / SHA)
Sat 11:39:33 AM 31.2441 121.3338 176° South 125 144 800 -828 Descending FlightAware ADS-B (ZSSS / SHA)
Sat 11:39:48 AM 31.2349 121.3343 176° South 124 143 600 -600 Descending FlightAware ADS-B (ZSSS / SHA)
Sat 11:40:13 AM 31.2199 121.3351 176° South 124 143 400 -480 Descending FlightAware ADS-B (ZSSS / SHA)
Sat 11:42:00 AM 31.1979 121.3363 177° South  Level Estimated
Sat 11:43:00 AM 31.1979 121.3363 North  Level Estimated

Login

Don't have an account? Register now (free) for customized features, flight alerts, and more!